Time;durP1;ratioP1;P1;durP2;ratioP2;P2;SDS_P1;SDS_P2;PMS_P1;PMS_P2;Temp;Humidity;BMP_temperature;BMP_pressure;BME280_temperature;BME280_humidity;BME280_pressure;Samples;Min_cycle;Max_cycle;Signal;HPM_P1;HPM_P2
2024/01/18 00:01:37;;;;;;;16.45;10.30;;;2.60;1.00;;;;;;5000323;28;20113;-58
2024/01/18 00:04:03;;;;;;;15.95;10.20;;;2.60;1.00;;;;;;5000241;28;20303;-58
2024/01/18 00:06:31;;;;;;;16.83;9.77;;;2.60;1.00;;;;;;5000354;28;20027;-58
2024/01/18 00:08:57;;;;;;;17.27;9.80;;;2.60;1.00;;;;;;4999641;28;20038;-58
2024/01/18 00:11:25;;;;;;;17.75;9.90;;;2.60;1.00;;;;;;4999590;28;20048;-58
2024/01/18 00:13:51;;;;;;;18.90;9.85;;;2.60;1.00;;;;;;5000065;28;20092;-58
2024/01/18 00:16:17;;;;;;;19.67;9.93;;;2.60;1.00;;;;;;4999339;28;20038;-58
2024/01/18 00:18:42;;;;;;;16.85;10.10;;;2.60;1.00;;;;;;5000079;28;20030;-58
2024/01/18 00:21:08;;;;;;;15.25;9.05;;;2.50;1.00;;;;;;4999207;28;20111;-58
2024/01/18 00:23:34;;;;;;;17.13;9.07;;;2.50;1.00;;;;;;4999925;28;20049;-58
2024/01/18 00:26:00;;;;;;;16.33;9.55;;;2.50;1.00;;;;;;4983233;28;20046;-58
2024/01/18 00:28:25;;;;;;;17.10;9.88;;;2.50;1.00;;;;;;4999137;28;20317;-58
2024/01/18 00:30:51;;;;;;;17.92;9.57;;;2.50;1.00;;;;;;4998968;28;20035;-59
2024/01/18 00:33:17;;;;;;;19.48;10.30;;;2.40;1.00;;;;;;4999857;28;20026;-58
2024/01/18 00:35:43;;;;;;;16.67;10.20;;;2.40;1.00;;;;;;4999143;28;20060;-58
2024/01/18 00:38:08;;;;;;;15.85;9.52;;;2.40;1.00;;;;;;4999573;28;20038;-59
2024/01/18 00:40:34;;;;;;;16.52;9.93;;;2.40;1.00;;;;;;4999696;28;20045;-58
2024/01/18 00:43:00;;;;;;;19.23;9.50;;;2.40;1.00;;;;;;4998972;28;20039;-58
2024/01/18 00:45:26;;;;;;;17.38;9.57;;;2.40;1.00;;;;;;4999599;28;20121;-58
2024/01/18 00:47:51;;;;;;;20.30;10.60;;;2.40;1.00;;;;;;4982534;28;20038;-58
2024/01/18 00:50:17;;;;;;;17.05;9.80;;;2.40;1.00;;;;;;4999431;28;20049;-58
2024/01/18 00:52:43;;;;;;;18.90;9.98;;;2.30;1.00;;;;;;4999417;28;20034;-58
2024/01/18 00:55:10;;;;;;;17.65;10.13;;;2.30;1.00;;;;;;4982571;28;20045;-58
2024/01/18 00:57:36;;;;;;;17.27;9.93;;;2.40;1.00;;;;;;4999260;28;20050;-58
2024/01/18 01:00:02;;;;;;;13.80;9.20;;;2.40;1.00;;;;;;4999310;28;20301;-58
2024/01/18 01:02:28;;;;;;;18.33;9.93;;;2.40;1.00;;;;;;4998578;28;20046;-58
2024/01/18 01:04:54;;;;;;;17.67;9.85;;;2.30;1.00;;;;;;4999197;28;20355;-58
2024/01/18 01:07:20;;;;;;;19.20;9.82;;;2.30;1.00;;;;;;4999203;28;20420;-58
2024/01/18 01:09:46;;;;;;;21.95;11.00;;;2.40;1.00;;;;;;4998374;28;20406;-57
2024/01/18 01:12:11;;;;;;;15.50;9.55;;;2.40;1.00;;;;;;4998986;28;20045;-58
2024/01/18 01:14:37;;;;;;;20.42;9.90;;;2.40;1.00;;;;;;4999020;28;20287;-58
2024/01/18 01:17:03;;;;;;;16.65;9.45;;;2.40;1.00;;;;;;4998367;28;20049;-59
2024/01/18 01:19:29;;;;;;;18.60;10.70;;;2.30;1.00;;;;;;4998300;28;20114;-58
2024/01/18 01:21:54;;;;;;;17.08;10.15;;;2.40;1.00;;;;;;4999086;28;20064;-58
2024/01/18 01:24:20;;;;;;;13.88;9.52;;;2.40;1.00;;;;;;4998062;28;20026;-58
2024/01/18 01:26:46;;;;;;;18.80;9.50;;;2.40;1.00;;;;;;4998991;28;20056;-59
2024/01/18 01:29:12;;;;;;;16.13;10.57;;;2.40;1.00;;;;;;4998768;28;20362;-58
2024/01/18 01:31:38;;;;;;;15.10;9.52;;;2.50;1.00;;;;;;4998542;28;20060;-58
2024/01/18 01:34:03;;;;;;;17.88;9.45;;;2.50;1.00;;;;;;4998532;28;20101;-58
2024/01/18 01:36:29;;;;;;;16.60;9.57;;;2.50;1.00;;;;;;4997907;28;20149;-58
2024/01/18 01:38:56;;;;;;;16.67;10.00;;;2.50;1.00;;;;;;4998554;28;20030;-58
2024/01/18 01:41:22;;;;;;;18.77;10.15;;;2.50;1.00;;;;;;4998574;28;20034;-58
2024/01/18 01:43:58;;;;;;;19.90;10.55;;;2.50;1.00;;;;;;4998430;28;20031;-58
2024/01/18 01:46:25;;;;;;;17.73;10.45;;;2.60;1.00;;;;;;4998448;28;20105;-58
2024/01/18 01:48:55;;;;;;;17.00;10.20;;;2.50;1.00;;;;;;4998300;28;20113;-58
2024/01/18 01:51:21;;;;;;;17.35;10.48;;;2.50;1.00;;;;;;4997563;28;20351;-59
2024/01/18 01:53:47;;;;;;;20.60;10.23;;;2.60;1.00;;;;;;4998376;28;20057;-58
2024/01/18 01:56:13;;;;;;;16.88;10.38;;;2.50;1.00;;;;;;4998179;28;20038;-58
2024/01/18 01:58:39;;;;;;;18.70;10.13;;;2.40;1.00;;;;;;4998143;28;20049;-58
2024/01/18 02:01:05;;;;;;;15.50;9.88;;;2.40;1.00;;;;;;4998211;28;20023;-58
2024/01/18 02:03:32;;;;;;;17.80;10.70;;;2.50;1.00;;;;;;4998053;28;20037;-58
2024/01/18 02:05:57;;;;;;;15.52;10.07;;;2.50;1.00;;;;;;4997498;28;20303;-58
2024/01/18 02:08:23;;;;;;;17.90;9.50;;;2.40;1.00;;;;;;4998404;28;20042;-58
2024/01/18 02:10:50;;;;;;;16.45;9.68;;;2.30;1.00;;;;;;4998012;28;20030;-58
2024/01/18 02:13:17;;;;;;;20.50;10.32;;;2.30;1.00;;;;;;4997942;28;20085;-58
2024/01/18 02:15:43;;;;;;;16.27;10.07;;;2.30;1.00;;;;;;4997959;28;20031;-58
2024/01/18 02:18:09;;;;;;;21.35;10.52;;;2.40;1.00;;;;;;4997818;28;20074;-58
2024/01/18 02:20:35;;;;;;;17.45;10.23;;;2.40;1.00;;;;;;4997364;28;20429;-57
2024/01/18 02:23:05;;;;;;;16.50;10.15;;;2.40;1.00;;;;;;4997901;28;20112;-58
2024/01/18 02:25:31;;;;;;;16.70;9.98;;;2.40;1.00;;;;;;4997117;28;20088;-58
2024/01/18 02:27:57;;;;;;;21.10;10.13;;;2.40;1.00;;;;;;4997940;28;20046;-58
2024/01/18 02:30:23;;;;;;;17.48;10.43;;;2.40;1.00;;;;;;4997710;28;20026;-58
2024/01/18 02:32:49;;;;;;;17.63;9.82;;;2.40;1.00;;;;;;4997598;28;20104;-60
2024/01/18 02:35:16;;;;;;;18.35;10.75;;;2.40;1.00;;;;;;4996934;28;20321;-59
2024/01/18 02:37:42;;;;;;;15.98;9.90;;;2.40;1.00;;;;;;4997748;28;20070;-59
2024/01/18 02:40:08;;;;;;;16.33;9.65;;;2.40;1.00;;;;;;4997544;28;20062;-59
2024/01/18 02:42:34;;;;;;;17.95;10.50;;;2.40;1.00;;;;;;4996747;28;20382;-59
2024/01/18 02:45:02;;;;;;;15.88;10.52;;;2.30;1.00;;;;;;4997006;28;20130;-59
2024/01/18 02:47:29;;;;;;;15.05;9.57;;;2.30;1.00;;;;;;4997109;28;20042;-59
2024/01/18 02:49:58;;;;;;;18.67;10.75;;;2.30;1.00;;;;;;4996892;28;20104;-58
2024/01/18 02:52:26;;;;;;;18.25;10.93;;;2.40;6.90;;;;;;4998205;28;20125;-59
2024/01/18 02:54:52;;;;;;;16.33;9.95;;;2.50;1.00;;;;;;5004182;28;20428;-59
2024/01/18 02:57:19;;;;;;;18.52;10.20;;;2.50;1.00;;;;;;5003089;28;20129;-58
2024/01/18 02:59:44;;;;;;;18.00;11.13;;;2.40;1.00;;;;;;5003936;28;20030;-59
2024/01/18 03:02:10;;;;;;;17.92;10.10;;;2.50;1.00;;;;;;5003202;28;20041;-58
2024/01/18 03:04:36;;;;;;;18.23;10.65;;;2.40;1.00;;;;;;5003207;28;20026;-59
2024/01/18 03:07:02;;;;;;;18.70;9.85;;;2.40;1.00;;;;;;5003891;28;20046;-59
2024/01/18 03:09:28;;;;;;;20.52;10.90;;;2.40;1.00;;;;;;5003810;28;20040;-59
2024/01/18 03:11:54;;;;;;;15.70;10.35;;;2.50;1.00;;;;;;5003064;28;20035;-59
2024/01/18 03:14:22;;;;;;;19.85;10.13;;;2.40;1.00;;;;;;5003782;28;20436;-56
2024/01/18 03:16:48;;;;;;;15.32;9.82;;;2.50;1.00;;;;;;5003690;28;20357;-58
2024/01/18 03:19:14;;;;;;;15.75;9.98;;;2.40;1.00;;;;;;5002963;28;20034;-59
2024/01/18 03:21:40;;;;;;;18.25;9.98;;;2.40;1.00;;;;;;5002974;28;20356;-59
2024/01/18 03:24:06;;;;;;;16.17;9.40;;;2.40;9.30;;;;;;5003854;28;20085;-59
2024/01/18 03:26:33;;;;;;;20.88;10.88;;;2.40;10.00;;;;;;5003974;28;20075;-59
2024/01/18 03:28:59;;;;;;;15.85;9.77;;;2.30;14.30;;;;;;5003619;28;20395;-59
2024/01/18 03:31:25;;;;;;;15.38;10.00;;;2.30;20.30;;;;;;5002835;28;20307;-59
2024/01/18 03:33:50;;;;;;;20.55;10.45;;;2.30;20.90;;;;;;5003752;28;20033;-58
2024/01/18 03:36:17;;;;;;;17.20;10.13;;;2.30;23.10;;;;;;5003572;28;20092;-60
2024/01/18 03:38:43;;;;;;;18.23;9.65;;;2.30;26.60;;;;;;5003561;28;20026;-58
2024/01/18 03:41:10;;;;;;;15.48;9.35;;;2.20;25.90;;;;;;5003595;28;20030;-59
2024/01/18 03:43:35;;;;;;;16.80;10.38;;;2.20;29.60;;;;;;5003500;28;20077;-58
2024/01/18 03:46:01;;;;;;;15.57;10.15;;;2.10;33.40;;;;;;5002923;28;20076;-58
2024/01/18 03:48:27;;;;;;;16.20;9.80;;;2.10;36.50;;;;;;5003464;28;20080;-59
2024/01/18 03:50:54;;;;;;;16.58;9.77;;;2.10;39.10;;;;;;5002800;28;20085;-61
2024/01/18 03:53:20;;;;;;;20.55;9.80;;;2.10;49.50;;;;;;5002771;28;20402;-58
2024/01/18 03:55:46;;;;;;;17.70;9.77;;;2.00;50.10;;;;;;5003751;28;20034;-58
2024/01/18 03:58:12;;;;;;;15.32;9.40;;;2.10;46.50;;;;;;5003313;28;20038;-59
2024/01/18 04:00:41;;;;;;;18.35;9.88;;;2.10;46.60;;;;;;5003432;28;20038;-59
2024/01/18 04:03:07;;;;;;;16.83;8.98;;;2.10;51.90;;;;;;5003718;28;20401;-58
2024/01/18 04:05:32;;;;;;;18.55;10.15;;;2.10;43.40;;;;;;4982628;28;20093;-58
2024/01/18 04:07:58;;;;;;;17.38;9.27;;;2.00;40.60;;;;;;5000287;28;20034;-59
2024/01/18 04:10:24;;;;;;;16.13;9.25;;;2.10;51.10;;;;;;5000211;28;20436;-58
2024/01/18 04:12:50;;;;;;;14.15;8.75;;;2.10;54.20;;;;;;4999406;28;20034;-57
2024/01/18 04:15:15;;;;;;;15.20;9.50;;;2.00;52.80;;;;;;5000153;28;20058;-57
2024/01/18 04:17:41;;;;;;;16.33;9.63;;;2.00;47.10;;;;;;5000268;28;20283;-58
2024/01/18 04:20:10;;;;;;;16.58;9.05;;;2.00;47.60;;;;;;4999334;28;20045;-58
2024/01/18 04:22:37;;;;;;;14.00;9.65;;;2.00;44.50;;;;;;5000049;28;20026;-58
2024/01/18 04:25:03;;;;;;;19.30;9.23;;;2.00;47.20;;;;;;4999946;28;20109;-58
2024/01/18 04:27:29;;;;;;;17.85;8.95;;;1.90;48.40;;;;;;4983008;28;20045;-58
2024/01/18 04:29:55;;;;;;;14.07;9.63;;;1.80;49.60;;;;;;4999893;28;20117;-57
2024/01/18 04:32:21;;;;;;;15.40;9.05;;;1.70;57.30;;;;;;4999798;28;20365;-57
2024/01/18 04:34:46;;;;;;;16.55;9.55;;;1.70;60.00;;;;;;4999897;28;20046;-57
2024/01/18 04:37:12;;;;;;;13.15;7.78;;;1.60;75.50;;;;;;4999666;28;20041;-57
2024/01/18 04:39:38;;;;;;;16.17;7.93;;;1.50;72.80;;;;;;4999659;28;20085;-58
2024/01/18 04:42:04;;;;;;;17.80;8.10;;;1.40;74.80;;;;;;4999682;28;20102;-57
2024/01/18 04:44:30;;;;;;;13.93;8.30;;;1.30;79.20;;;;;;4982777;28;20413;-57
2024/01/18 04:46:56;;;;;;;16.45;8.98;;;1.30;79.90;;;;;;4999079;28;20031;-57
2024/01/18 04:49:23;;;;;;;17.30;8.80;;;1.30;82.40;;;;;;4999103;28;20045;-58
2024/01/18 04:51:49;;;;;;;15.57;9.13;;;1.20;85.40;;;;;;4999495;28;20031;-57
2024/01/18 04:54:15;;;;;;;15.82;8.73;;;1.10;90.80;;;;;;4982388;28;20138;-58
2024/01/18 04:56:41;;;;;;;14.63;8.52;;;1.10;92.10;;;;;;4999546;28;20109;-57
2024/01/18 04:59:08;;;;;;;15.50;7.72;;;1.10;90.40;;;;;;4999351;28;20122;-58
2024/01/18 05:01:39;;;;;;;15.02;8.45;;;1.00;88.70;;;;;;4999719;28;20331;-59
2024/01/18 05:04:05;;;;;;;12.43;7.82;;;1.00;90.60;;;;;;5014753;28;20038;-59
2024/01/18 05:06:31;;;;;;;15.45;8.35;;;0.90;91.80;;;;;;4998526;28;20444;-59
2024/01/18 05:08:57;;;;;;;17.60;8.77;;;0.90;91.90;;;;;;4998422;28;20034;-59
2024/01/18 05:11:25;;;;;;;13.57;8.70;;;0.80;93.80;;;;;;4999039;28;20045;-58
2024/01/18 05:13:51;;;;;;;15.68;8.57;;;0.70;96.10;;;;;;4998191;28;20077;-57
2024/01/18 05:16:18;;;;;;;14.88;7.75;;;0.60;97.30;;;;;;4997735;28;20068;-57
2024/01/18 05:18:44;;;;;;;16.35;8.25;;;0.60;99.90;;;;;;4998227;28;20030;-58
2024/01/18 05:21:10;;;;;;;17.33;8.55;;;0.60;99.90;;;;;;4981979;28;20046;-60
2024/01/18 05:23:36;;;;;;;12.98;8.32;;;0.60;98.10;;;;;;4998876;28;20030;-56
2024/01/18 05:26:03;;;;;;;13.05;8.43;;;0.70;97.10;;;;;;4999123;28;20283;-56
2024/01/18 05:28:29;;;;;;;14.77;8.63;;;0.60;97.30;;;;;;4997959;28;20034;-56
2024/01/18 05:30:56;;;;;;;16.63;8.27;;;0.60;98.80;;;;;;4997858;28;20026;-57
2024/01/18 05:33:23;;;;;;;15.25;8.20;;;0.60;97.60;;;;;;4998009;28;20321;-57
2024/01/18 05:35:48;;;;;;;12.60;7.68;;;0.50;97.20;;;;;;4998880;28;20034;-57
2024/01/18 05:38:14;;;;;;;18.98;7.93;;;0.50;98.80;;;;;;4998437;28;20096;-57
2024/01/18 05:40:40;;;;;;;13.82;7.10;;;0.50;99.90;;;;;;4998519;28;20030;-57
2024/01/18 05:43:06;;;;;;;12.32;7.32;;;0.50;99.90;;;;;;4998406;28;20089;-57
2024/01/18 05:45:32;;;;;;;12.48;7.13;;;0.40;99.70;;;;;;4997725;28;20326;-57
2024/01/18 05:47:57;;;;;;;11.48;6.80;;;0.40;98.50;;;;;;4998395;28;20092;-57
2024/01/18 05:50:24;;;;;;;12.13;7.53;;;0.40;98.00;;;;;;4998259;28;20046;-57
2024/01/18 05:52:50;;;;;;;13.20;7.80;;;0.30;99.80;;;;;;4998017;28;20054;-58
2024/01/18 05:55:15;;;;;;;15.57;8.63;;;0.30;99.90;;;;;;4998296;28;20393;-58
2024/01/18 05:57:41;;;;;;;13.80;8.43;;;0.30;99.90;;;;;;4998063;28;20108;-58
2024/01/18 06:00:08;;;;;;;14.27;7.70;;;0.30;99.90;;;;;;4998183;28;20030;-58
2024/01/18 06:02:34;;;;;;;12.10;7.13;;;0.30;99.90;;;;;;4998165;28;20030;-58
2024/01/18 06:05:00;;;;;;;12.43;7.43;;;0.30;99.90;;;;;;4998074;28;20417;-58
2024/01/18 06:07:26;;;;;;;13.05;7.03;;;0.30;99.90;;;;;;4997213;28;20105;-58
2024/01/18 06:09:52;;;;;;;12.15;6.75;;;0.20;99.90;;;;;;4998022;28;20142;-57
2024/01/18 06:12:20;;;;;;;11.13;6.55;;;0.20;99.90;;;;;;4997038;28;20126;-58
2024/01/18 06:14:45;;;;;;;13.65;6.60;;;0.20;99.90;;;;;;4981269;28;20038;-58
2024/01/18 06:17:11;;;;;;;13.45;7.03;;;0.20;99.90;;;;;;4997915;28;20386;-57
2024/01/18 06:19:37;;;;;;;10.23;6.03;;;0.20;99.30;;;;;;4997892;28;20050;-58
2024/01/18 06:22:03;;;;;;;9.85;6.20;;;0.10;98.90;;;;;;4997832;28;20018;-58
2024/01/18 06:24:29;;;;;;;11.57;6.70;;;0.10;99.90;;;;;;4997805;28;20034;-58
2024/01/18 06:26:55;;;;;;;10.90;6.00;;;0.10;99.90;;;;;;4996981;28;20033;-58
2024/01/18 06:29:26;;;;;;;11.23;6.15;;;0.10;99.90;;;;;;4997211;28;20101;-58
2024/01/18 06:31:53;;;;;;;10.82;6.13;;;0.10;98.20;;;;;;4997795;28;20148;-58
2024/01/18 06:34:19;;;;;;;9.52;5.68;;;0.10;98.00;;;;;;4997640;28;20030;-58
2024/01/18 06:36:45;;;;;;;12.30;6.80;;;0.00;98.10;;;;;;4997535;28;20038;-57
2024/01/18 06:39:10;;;;;;;13.90;6.93;;;0.00;99.90;;;;;;4997575;28;20348;-58
2024/01/18 06:41:36;;;;;;;12.77;7.18;;;0.00;99.90;;;;;;4996930;28;20038;-58
2024/01/18 06:44:03;;;;;;;12.95;7.18;;;-0.10;99.90;;;;;;4997469;28;20401;-58
2024/01/18 06:46:31;;;;;;;18.08;8.68;;;-0.20;99.90;;;;;;5013086;28;20279;-57
2024/01/18 06:48:57;;;;;;;15.40;8.15;;;-0.20;99.90;;;;;;4997588;28;20042;-57
2024/01/18 06:51:23;;;;;;;10.35;7.35;;;-0.30;99.90;;;;;;4997586;28;20037;-59
2024/01/18 06:53:50;;;;;;;13.90;7.60;;;-0.20;99.90;;;;;;4997294;28;20128;-58
2024/01/18 06:56:16;;;;;;;12.25;7.47;;;1.10;99.90;;;;;;4997320;28;20413;-58
2024/01/18 06:58:43;;;;;;;14.32;8.00;;;0.80;66.70;;;;;;5012948;28;20034;-57
2024/01/18 07:01:10;;;;;;;11.82;7.20;;;0.50;64.80;;;;;;4996672;28;20035;-58
2024/01/18 07:03:37;;;;;;;16.92;7.05;;;0.40;68.60;;;;;;4997300;28;20042;-58
2024/01/18 07:06:04;;;;;;;11.70;6.75;;;0.20;64.90;;;;;;4997280;28;20463;-58
2024/01/18 07:08:30;;;;;;;17.17;7.60;;;0.10;77.90;;;;;;5012810;28;20042;-58
2024/01/18 07:10:56;;;;;;;12.52;6.80;;;0.00;90.40;;;;;;4996453;28;20401;-57
2024/01/18 07:13:22;;;;;;;13.57;7.28;;;0.00;90.70;;;;;;4997258;28;20089;-57
2024/01/18 07:15:48;;;;;;;11.38;7.10;;;-0.10;90.30;;;;;;4997222;28;20038;-57
2024/01/18 07:18:14;;;;;;;12.77;7.00;;;0.00;92.30;;;;;;4997058;28;20069;-58
2024/01/18 07:20:40;;;;;;;13.73;6.95;;;-0.10;90.40;;;;;;4996454;28;20418;-58
2024/01/18 07:23:06;;;;;;;12.65;7.15;;;-0.10;93.20;;;;;;4997188;28;20064;-59
2024/01/18 07:25:32;;;;;;;14.52;6.68;;;-0.20;92.70;;;;;;4996382;28;20019;-58
2024/01/18 07:27:59;;;;;;;14.85;6.75;;;0.80;99.90;;;;;;4997118;28;20039;-58
2024/01/18 07:30:25;;;;;;;11.60;7.03;;;0.60;71.40;;;;;;5012681;28;20026;-58
2024/01/18 07:32:51;;;;;;;11.20;6.50;;;0.30;54.60;;;;;;5012449;28;20317;-58
2024/01/18 07:35:17;;;;;;;15.15;6.95;;;0.20;61.20;;;;;;4996980;28;20414;-58
2024/01/18 07:37:43;;;;;;;13.93;6.53;;;0.00;59.10;;;;;;4996904;28;20159;-58
2024/01/18 07:40:09;;;;;;;13.82;6.30;;;-0.10;72.50;;;;;;4999686;28;20069;-59
2024/01/18 07:42:35;;;;;;;9.00;5.82;;;-0.20;77.90;;;;;;5000554;28;20177;-59
2024/01/18 07:45:00;;;;;;;10.82;5.93;;;-0.20;86.60;;;;;;5000614;28;20078;-59
2024/01/18 07:47:26;;;;;;;10.68;5.85;;;-0.20;90.10;;;;;;5000540;28;20038;-57
2024/01/18 07:49:52;;;;;;;12.02;5.65;;;-0.20;89.60;;;;;;5000496;28;20053;-58
2024/01/18 07:52:18;;;;;;;11.23;5.57;;;-0.20;87.00;;;;;;4999592;28;20034;-58
2024/01/18 07:54:45;;;;;;;12.20;5.47;;;-0.20;78.10;;;;;;4999756;28;20424;-58
2024/01/18 07:57:11;;;;;;;12.55;6.53;;;-0.30;85.70;;;;;;4999446;28;20069;-58
2024/01/18 07:59:37;;;;;;;11.50;5.28;;;-0.30;90.70;;;;;;4983435;28;20393;-58
2024/01/18 08:02:02;;;;;;;13.73;5.93;;;-0.20;90.30;;;;;;5000634;28;20046;-58
2024/01/18 08:04:29;;;;;;;12.88;5.82;;;-0.20;89.40;;;;;;5000450;28;20030;-59
2024/01/18 08:06:56;;;;;;;11.43;5.78;;;-0.30;89.50;;;;;;5000166;28;20046;-58
2024/01/18 08:09:21;;;;;;;11.90;5.47;;;-0.30;91.50;;;;;;5000079;28;20401;-58
2024/01/18 08:11:47;;;;;;;13.75;6.18;;;-0.30;89.40;;;;;;5000224;28;20068;-58
2024/01/18 08:14:13;;;;;;;11.38;5.80;;;-0.30;90.30;;;;;;5000138;28;20349;-58
2024/01/18 08:16:39;;;;;;;13.57;5.20;;;-0.30;87.70;;;;;;5000015;28;20034;-57
2024/01/18 08:19:05;;;;;;;11.95;6.35;;;-0.20;85.40;;;;;;4999265;28;20053;-58
2024/01/18 08:21:31;;;;;;;14.35;6.53;;;-0.20;85.90;;;;;;4999809;28;20034;-57
2024/01/18 08:23:57;;;;;;;11.25;5.70;;;-0.10;83.40;;;;;;4999851;28;20173;-60
2024/01/18 08:26:23;;;;;;;13.10;5.95;;;-0.20;90.00;;;;;;4999889;28;20396;-58
2024/01/18 08:28:49;;;;;;;11.02;5.25;;;-0.20;92.80;;;;;;4999011;28;20038;-58
2024/01/18 08:31:14;;;;;;;12.25;5.78;;;-0.20;95.50;;;;;;4999538;28;20050;-60
2024/01/18 08:33:40;;;;;;;12.00;5.43;;;-0.10;96.60;;;;;;4999751;28;20092;-58
2024/01/18 08:36:08;;;;;;;12.48;5.72;;;-0.10;99.50;;;;;;4999261;28;20038;-58
2024/01/18 08:38:33;;;;;;;11.52;5.70;;;0.00;99.70;;;;;;4998870;28;20022;-58
2024/01/18 08:40:59;;;;;;;10.32;5.53;;;0.00;98.10;;;;;;4999038;28;20081;-58
2024/01/18 08:43:27;;;;;;;10.93;5.95;;;0.10;96.90;;;;;;4999587;28;20164;-57
2024/01/18 08:45:56;;;;;;;13.63;5.80;;;0.10;98.10;;;;;;4999604;28;20345;-58
2024/01/18 08:48:22;;;;;;;10.02;5.88;;;0.20;95.80;;;;;;4998603;28;20331;-57
2024/01/18 08:50:47;;;;;;;14.88;6.28;;;0.20;94.60;;;;;;4998779;28;20064;-57
2024/01/18 08:53:13;;;;;;;11.13;5.80;;;0.20;95.80;;;;;;4999337;28;20349;-58
2024/01/18 08:55:41;;;;;;;12.77;5.70;;;0.30;96.30;;;;;;4999378;28;20034;-58
2024/01/18 08:58:07;;;;;;;10.32;5.70;;;0.30;98.10;;;;;;4998368;28;20044;-58
2024/01/18 09:00:34;;;;;;;8.32;5.30;;;0.40;99.90;;;;;;5014732;28;20026;-58
2024/01/18 09:03:00;;;;;;;15.27;5.80;;;0.40;99.30;;;;;;4999104;28;20034;-58
2024/01/18 09:05:26;;;;;;;11.88;5.28;;;0.50;99.10;;;;;;4999268;28;20037;-58
2024/01/18 09:07:53;;;;;;;8.63;5.10;;;0.50;98.20;;;;;;4999076;28;20034;-59
2024/01/18 09:10:19;;;;;;;9.60;5.25;;;0.60;97.40;;;;;;4999129;28;20032;-58
2024/01/18 09:12:46;;;;;;;11.00;5.82;;;0.60;95.00;;;;;;4999175;28;20410;-58
2024/01/18 09:15:12;;;;;;;9.63;5.63;;;0.70;99.90;;;;;;4982387;28;20038;-58
2024/01/18 09:17:40;;;;;;;13.18;6.07;;;0.70;99.90;;;;;;4981825;28;20037;-58
2024/01/18 09:20:07;;;;;;;8.65;5.15;;;0.90;99.80;;;;;;4998894;28;20077;-58
2024/01/18 09:22:33;;;;;;;10.77;5.60;;;0.90;97.90;;;;;;4999101;28;20294;-58
2024/01/18 09:24:59;;;;;;;13.95;5.68;;;1.00;97.90;;;;;;4998154;28;20027;-58
2024/01/18 09:27:24;;;;;;;9.70;5.28;;;1.00;92.60;;;;;;4998802;28;20053;-58
2024/01/18 09:29:50;;;;;;;14.25;5.80;;;1.10;95.60;;;;;;4997927;28;20130;-59
2024/01/18 09:32:16;;;;;;;8.10;5.32;;;1.20;94.30;;;;;;4998335;28;20061;-59
2024/01/18 09:34:42;;;;;;;12.98;5.65;;;1.30;95.40;;;;;;4998651;28;20440;-58
2024/01/18 09:37:08;;;;;;;12.02;5.50;;;1.40;95.40;;;;;;4998571;28;20475;-58
2024/01/18 09:39:34;;;;;;;9.75;5.28;;;1.50;85.10;;;;;;4998536;28;20031;-60
2024/01/18 09:42:03;;;;;;;10.65;5.30;;;1.60;86.10;;;;;;4997856;28;20034;-59
2024/01/18 09:44:32;;;;;;;10.27;5.13;;;1.90;84.60;;;;;;4998506;28;20122;-62
2024/01/18 09:47:01;;;;;;;6.88;4.43;;;2.20;69.00;;;;;;4998559;28;20030;-59
2024/01/18 09:49:30;;;;;;;10.80;4.30;;;2.50;27.60;;;;;;4998364;28;20030;-60
2024/01/18 09:51:58;;;;;;;10.77;4.45;;;2.60;3.80;;;;;;4998406;28;20042;-59
2024/01/18 09:54:24;;;;;;;4.95;3.92;;;2.60;1.10;;;;;;4998183;28;20030;-59
2024/01/18 09:56:53;;;;;;;8.05;4.35;;;2.70;8.10;;;;;;4998100;28;20039;-60
2024/01/18 09:59:21;;;;;;;9.57;3.85;;;3.00;3.30;;;;;;4981187;28;20019;-60
2024/01/18 10:01:47;;;;;;;9.98;3.55;;;3.30;1.00;;;;;;4997818;28;20045;-61
2024/01/18 10:04:18;;;;;;;11.65;3.85;;;3.40;1.00;;;;;;4996747;28;20038;-59
2024/01/18 10:06:44;;;;;;;6.43;3.20;;;3.80;1.00;;;;;;4998062;28;20353;-62
2024/01/18 10:09:14;;;;;;;8.95;2.83;;;4.40;1.00;;;;;;4980961;28;20030;-60
2024/01/18 10:11:46;;;;;;;6.07;2.85;;;4.90;1.00;;;;;;4997148;28;20137;-58
2024/01/18 10:14:12;;;;;;;5.32;2.50;;;5.50;1.00;;;;;;4997238;28;20053;-59
2024/01/18 10:16:40;;;;;;;4.88;2.55;;;6.20;99.90;;;;;;4997750;28;20031;-59
2024/01/18 10:19:07;;;;;;;5.93;2.45;;;6.60;1.00;;;;;;4997125;28;20129;-60
2024/01/18 10:21:35;;;;;;;5.53;2.45;;;6.70;1.00;;;;;;4997795;28;20034;-60
2024/01/18 10:24:04;;;;;;;6.20;2.50;;;7.00;1.00;;;;;;4998068;28;20069;-61
2024/01/18 10:26:33;;;;;;;5.50;2.65;;;7.70;99.90;;;;;;4996944;28;20100;-59
2024/01/18 10:28:59;;;;;;;3.97;2.25;;;7.90;1.00;;;;;;4997013;28;20041;-59
2024/01/18 10:31:25;;;;;;;5.78;2.38;;;8.40;1.00;;;;;;4996757;28;20357;-59
2024/01/18 10:33:51;;;;;;;5.72;2.45;;;8.60;1.00;;;;;;4997548;28;20117;-59
2024/01/18 10:36:18;;;;;;;4.10;2.20;;;9.10;1.00;;;;;;5013165;28;20088;-60
2024/01/18 10:38:44;;;;;;;2.78;1.95;;;9.60;1.00;;;;;;4996887;28;20046;-59
2024/01/18 10:41:11;;;;;;;7.53;2.33;;;9.80;1.00;;;;;;4996840;28;20108;-59
2024/01/18 10:43:39;;;;;;;4.93;2.08;;;9.90;1.00;;;;;;4996758;28;20030;-62
2024/01/18 10:46:05;;;;;;;6.22;1.95;;;10.40;37.20;;;;;;4997456;28;20074;-60
2024/01/18 10:48:35;;;;;;;5.38;2.08;;;10.40;1.00;;;;;;4997394;28;20307;-60
2024/01/18 10:51:04;;;;;;;4.60;2.20;;;10.30;1.00;;;;;;4996761;28;20027;-59
2024/01/18 10:53:34;;;;;;;4.20;1.95;;;10.80;1.00;;;;;;4997393;28;20026;-60
2024/01/18 10:56:03;;;;;;;2.78;1.67;;;11.50;99.90;;;;;;4997506;28;20385;-60
2024/01/18 10:58:30;;;;;;;2.20;1.60;;;11.30;99.90;;;;;;4997221;28;20036;-60
2024/01/18 11:00:57;;;;;;;3.67;1.90;;;10.60;99.90;;;;;;4997225;28;20049;-60
2024/01/18 11:03:23;;;;;;;5.10;2.13;;;9.90;99.90;;;;;;4997472;28;20405;-61
2024/01/18 11:05:49;;;;;;;5.38;1.70;;;9.40;1.00;;;;;;4997341;28;20038;-60
2024/01/18 11:08:19;;;;;;;4.88;1.85;;;8.90;1.00;;;;;;4997183;28;20121;-60
2024/01/18 11:10:46;;;;;;;3.13;1.50;;;8.30;1.00;;;;;;5012630;28;20129;-59
2024/01/18 11:13:16;;;;;;;3.88;1.65;;;7.90;99.90;;;;;;4997147;28;20027;-59
2024/01/18 11:15:44;;;;;;;4.13;1.40;;;7.70;1.00;;;;;;5001222;28;20050;-59
2024/01/18 11:18:12;;;;;;;3.20;1.10;;;8.50;1.00;;;;;;4984238;28;20053;-61
2024/01/18 11:21:04;;;;;;;5.35;0.90;;;9.50;99.90;;;;;;5001057;28;20290;-61
2024/01/18 11:23:40;;;;;;;3.75;0.90;;;10.20;99.90;;;;;;5000312;28;20061;-61
2024/01/18 11:26:08;;;;;;;4.43;0.93;;;10.20;99.90;;;;;;4968019;28;20125;-61
2024/01/18 11:28:35;;;;;;;3.10;0.93;;;10.20;99.90;;;;;;5000893;28;20108;-61
2024/01/18 11:31:01;;;;;;;3.42;0.80;;;10.10;99.90;;;;;;5000751;28;20038;-61
2024/01/18 11:33:27;;;;;;;5.13;1.00;;;10.00;99.90;;;;;;5000713;28;20034;-60
2024/01/18 11:35:55;;;;;;;1.73;0.80;;;9.60;99.90;;;;;;5000803;28;20030;-61
2024/01/18 11:38:25;;;;;;;4.40;0.95;;;9.00;99.90;;;;;;5000755;28;20322;-61
2024/01/18 11:41:04;;;;;;;3.17;1.00;;;9.30;99.90;;;;;;5000727;28;20058;-60
2024/01/18 11:43:53;;;;;;;2.58;0.80;;;9.30;99.90;;;;;;5000526;28;20402;-60
2024/01/18 11:46:32;;;;;;;1.85;0.77;;;9.10;99.90;;;;;;5000537;28;20034;-62
2024/01/18 11:48:58;;;;;;;3.03;0.70;;;9.00;99.90;;;;;;4999811;28;20054;-60
2024/01/18 11:51:24;;;;;;;3.88;0.75;;;8.70;99.90;;;;;;5000415;28;20062;-60
2024/01/18 11:53:52;;;;;;;2.83;0.93;;;8.10;1.00;;;;;;5000419;28;20057;-59
2024/01/18 11:56:19;;;;;;;4.57;1.23;;;7.60;1.00;;;;;;4999653;28;20029;-61
2024/01/18 11:58:46;;;;;;;3.53;0.80;;;7.60;51.50;;;;;;4999628;28;20034;-61
2024/01/18 12:01:14;;;;;;;1.65;0.60;;;7.70;1.00;;;;;;4999627;28;20039;-60
2024/01/18 12:03:40;;;;;;;1.98;0.50;;;7.60;1.00;;;;;;5000294;28;20019;-60
2024/01/18 12:06:06;;;;;;;4.78;0.65;;;7.30;1.00;;;;;;5000352;28;20095;-60
2024/01/18 12:08:32;;;;;;;2.80;0.60;;;7.40;1.00;;;;;;4999502;28;20045;-62
2024/01/18 12:10:57;;;;;;;1.08;0.70;;;7.40;1.00;;;;;;4999531;28;20279;-60
2024/01/18 12:13:23;;;;;;;1.38;0.80;;;7.30;1.00;;;;;;4999223;28;20045;-59
2024/01/18 12:15:52;;;;;;;6.93;0.82;;;7.20;99.90;;;;;;5000052;28;20034;-60
2024/01/18 12:18:18;;;;;;;5.68;0.82;;;7.20;99.90;;;;;;4999178;28;20061;-61
2024/01/18 12:20:44;;;;;;;7.18;0.60;;;7.40;92.50;;;;;;4999994;28;20030;-62
2024/01/18 12:23:16;;;;;;;3.35;0.70;;;7.30;99.90;;;;;;4999848;28;20255;-60
2024/01/18 12:25:43;;;;;;;3.55;0.50;;;7.30;99.90;;;;;;4998847;28;20382;-60
2024/01/18 12:28:10;;;;;;;3.63;0.60;;;7.30;1.00;;;;;;4999773;28;20391;-59
2024/01/18 12:30:42;;;;;;;4.55;0.80;;;7.50;1.00;;;;;;4999090;28;20401;-60
2024/01/18 12:33:09;;;;;;;2.70;0.70;;;7.60;99.90;;;;;;4999832;28;20503;-61
2024/01/18 12:35:38;;;;;;;3.78;0.75;;;7.70;99.90;;;;;;4999015;28;20062;-60
2024/01/18 12:38:04;;;;;;;2.05;0.50;;;7.70;99.90;;;;;;4999506;28;20034;-60
2024/01/18 12:40:31;;;;;;;2.55;0.85;;;7.60;99.90;;;;;;4999538;28;20026;-60
2024/01/18 12:43:03;;;;;;;2.35;0.50;;;7.50;99.90;;;;;;4998832;28;20058;-60
2024/01/18 12:45:31;;;;;;;2.15;0.40;;;7.50;1.00;;;;;;4999549;28;20026;-63
2024/01/18 12:47:57;;;;;;;4.57;0.60;;;7.40;1.00;;;;;;4999531;28;20361;-60